Terminal Aerodrome Forecast
Issued by NWS

Home | Current Version | Previous Version | Text Only | Print | Product List | Glossary On
Versions: 1 2 3 4 5 6 7 8 9 10 11 12 13 14
000
FTUS42 TJSJ 010547
TAFJMZ
TAF
TJMZ 010547Z 0106/0206 05003KT P6SM FEW120
     FM011600 27010KT P6SM VCTS SCT025CB BKN040
      TEMPO 0117/0121 VRB12G20KT 4SM TSRA BKN020CB OVC030
     FM012330 07006KT P6SM VCSH SCT030 BKN070 BKN120
      AMD NOT SKED TIL 011100=

USA.gov is the U.S. government's official web portal to all federal, state and local government web resources and services.